Palma De Mallorca, Spain

7:48 AM CEST on August 28, 2014 (GMT +0200)
Ciudad Jardin | Change Station
CLOSE
Current Station
Personal Weather Station
Location: Palma De Mallorca, ILLES BALEARS
Elevation: 20 ft
Nearby Weather Stations

Elev 20 ft 39.55 °N, 2.69 °E | Updated 2 seconds ago

Partly Cloudy
Partly Cloudy
72.2 °F
Feels Like 71 °F
N
3.5
Wind Variable Wind from ENE
Gusts 3.5 mph

Today
High -- | Low -- °F
--% Chance of Precip.
Yesterday
High -- | Low -- °F
Precip. -- in
7:13 AM 8:26 PM
Waxing Crescent, 6% visible
Pressure 30.01 in
Visibility 6.2 miles
Clouds Few 700 ft
Heat Index 71 °F
Dew Point 68 °F
Humidity 86%
Rainfall 0.00 in
Snow Depth Not available.
UV 0 out of 12
Pollen Not available.
Air Quality Not available.
Flu Activity Not available.
METAR LEPA 280530Z VRB02KT 9999 FEW007 21/20 Q1016 NOSIG

More Conditions Fewer Conditions

Pressure 30.01 in
Visibility 6.2 miles
Clouds Few 700 ft
Heat Index 71 °F
Dew Point 68 °F
Humidity 86%
Rainfall 0.00 in
Snow Depth Not available.
UV 0 out of 12
Pollen Not available.
Air Quality Not available.
Flu Activity Not available.
METAR LEPA 280530Z VRB02KT 9999 FEW007 21/20 Q1016 NOSIG

More Conditions Fewer Conditions

10-Day Weather Forecast

Almanac

Astronomy

Aug. 28, 2014 Rise Set
Actual Time 7:13 AM CEST 8:26 PM CEST
Civil Twilight 6:45 AM CEST 8:54 PM CEST
Nautical Twilight 6:12 AM CEST 9:27 PM CEST
Astronomical Twilight 5:37 AM CEST 10:02 PM CEST
Moon 9:50 AM CEST 9:43 PM CEST
Length of Visible Light 14h 08m
Length of Day
13h 13m
Tomorrow will be 2m 26s shorter.
Waxing Crescent, 6% of the Moon is Illuminated
Today
Waxing Crescent
Sep 2
First Quarter
Sep 8
Full
Sep 15
Last Quarter
Sep 24
New

Yesterday's Extremes

Country Highs Country Lows

Community

WunderPhotos

Upload Photos

1,747,909 photos uploaded!

Nearby

Snow Depth

Not available.

Earthquake Activity

City Distance Mag. Time & Date
No recent earthquake activity has been reported nearby.
Minimum magnitude displayed is 2.5.

Coastal Water Temperatures

Place Temperature
No Stations Reporting

Nearby Weather Stations